sensor_id;sensor_type;location;lat;lon;timestamp;P1;durP1;ratioP1;P2;durP2;ratioP2
41946;SDS011;27638;42.184;24.848;2023-07-29T00:00:41;4.85;;;2.60;;
41946;SDS011;27638;42.184;24.848;2023-07-29T00:03:07;3.70;;;2.60;;
41946;SDS011;27638;42.184;24.848;2023-07-29T00:05:33;4.18;;;2.88;;
41946;SDS011;27638;42.184;24.848;2023-07-29T00:07:59;3.45;;;2.60;;
41946;SDS011;27638;42.184;24.848;2023-07-29T00:10:25;5.65;;;2.50;;
41946;SDS011;27638;42.184;24.848;2023-07-29T00:12:51;3.60;;;2.78;;
41946;SDS011;27638;42.184;24.848;2023-07-29T00:15:16;5.43;;;2.90;;
41946;SDS011;27638;42.184;24.848;2023-07-29T00:17:42;4.65;;;2.58;;
41946;SDS011;27638;42.184;24.848;2023-07-29T00:20:08;2.75;;;2.50;;
41946;SDS011;27638;42.184;24.848;2023-07-29T00:22:33;3.45;;;2.47;;
41946;SDS011;27638;42.184;24.848;2023-07-29T00:24:59;2.97;;;2.47;;
41946;SDS011;27638;42.184;24.848;2023-07-29T00:27:24;3.38;;;2.78;;
41946;SDS011;27638;42.184;24.848;2023-07-29T00:29:50;2.80;;;2.58;;
41946;SDS011;27638;42.184;24.848;2023-07-29T00:32:16;4.65;;;2.42;;
41946;SDS011;27638;42.184;24.848;2023-07-29T00:34:42;5.30;;;2.53;;
41946;SDS011;27638;42.184;24.848;2023-07-29T00:37:07;2.67;;;2.42;;
41946;SDS011;27638;42.184;24.848;2023-07-29T00:39:33;3.25;;;2.40;;
41946;SDS011;27638;42.184;24.848;2023-07-29T00:41:58;4.03;;;2.70;;
41946;SDS011;27638;42.184;24.848;2023-07-29T00:44:24;3.65;;;2.90;;
41946;SDS011;27638;42.184;24.848;2023-07-29T00:46:50;3.92;;;2.72;;
41946;SDS011;27638;42.184;24.848;2023-07-29T00:49:18;2.83;;;2.53;;
41946;SDS011;27638;42.184;24.848;2023-07-29T00:51:44;3.08;;;2.50;;
41946;SDS011;27638;42.184;24.848;2023-07-29T00:54:10;5.07;;;2.65;;
41946;SDS011;27638;42.184;24.848;2023-07-29T00:56:36;2.92;;;2.63;;
41946;SDS011;27638;42.184;24.848;2023-07-29T00:59:04;3.05;;;2.75;;
41946;SDS011;27638;42.184;24.848;2023-07-29T01:01:30;4.28;;;3.00;;
41946;SDS011;27638;42.184;24.848;2023-07-29T01:03:56;3.22;;;2.85;;
41946;SDS011;27638;42.184;24.848;2023-07-29T01:12:48;4.32;;;3.05;;
41946;SDS011;27638;42.184;24.848;2023-07-29T01:18:02;4.10;;;2.72;;
41946;SDS011;27638;42.184;24.848;2023-07-29T01:20:52;5.68;;;3.40;;
41946;SDS011;27638;42.184;24.848;2023-07-29T01:23:25;4.00;;;2.80;;
41946;SDS011;27638;42.184;24.848;2023-07-29T01:25:54;6.10;;;2.83;;
41946;SDS011;27638;42.184;24.848;2023-07-29T01:28:19;5.53;;;3.15;;
41946;SDS011;27638;42.184;24.848;2023-07-29T01:30:45;4.18;;;2.90;;
41946;SDS011;27638;42.184;24.848;2023-07-29T01:33:14;6.57;;;3.70;;
41946;SDS011;27638;42.184;24.848;2023-07-29T01:35:45;3.58;;;2.55;;
41946;SDS011;27638;42.184;24.848;2023-07-29T01:40:41;4.18;;;3.20;;
41946;SDS011;27638;42.184;24.848;2023-07-29T01:43:08;5.30;;;3.33;;
41946;SDS011;27638;42.184;24.848;2023-07-29T01:45:34;5.78;;;2.90;;
41946;SDS011;27638;42.184;24.848;2023-07-29T01:48:03;6.00;;;3.38;;
41946;SDS011;27638;42.184;24.848;2023-07-29T01:50:30;3.72;;;3.03;;
41946;SDS011;27638;42.184;24.848;2023-07-29T01:52:57;3.53;;;2.72;;
41946;SDS011;27638;42.184;24.848;2023-07-29T01:55:22;8.43;;;3.42;;
41946;SDS011;27638;42.184;24.848;2023-07-29T01:57:48;5.32;;;2.97;;
41946;SDS011;27638;42.184;24.848;2023-07-29T02:00:13;3.55;;;2.90;;
41946;SDS011;27638;42.184;24.848;2023-07-29T02:02:39;3.92;;;2.92;;
41946;SDS011;27638;42.184;24.848;2023-07-29T02:05:04;5.10;;;2.70;;
41946;SDS011;27638;42.184;24.848;2023-07-29T02:07:30;3.53;;;3.20;;
41946;SDS011;27638;42.184;24.848;2023-07-29T02:09:55;3.60;;;2.72;;
41946;SDS011;27638;42.184;24.848;2023-07-29T02:12:21;4.28;;;3.10;;
41946;SDS011;27638;42.184;24.848;2023-07-29T02:14:46;3.60;;;3.30;;
41946;SDS011;27638;42.184;24.848;2023-07-29T02:17:12;4.78;;;3.25;;
41946;SDS011;27638;42.184;24.848;2023-07-29T02:19:37;7.05;;;3.40;;
41946;SDS011;27638;42.184;24.848;2023-07-29T02:22:03;4.22;;;3.38;;
41946;SDS011;27638;42.184;24.848;2023-07-29T02:24:28;4.40;;;2.97;;
41946;SDS011;27638;42.184;24.848;2023-07-29T02:26:54;5.97;;;3.00;;
41946;SDS011;27638;42.184;24.848;2023-07-29T02:29:19;4.45;;;2.85;;
41946;SDS011;27638;42.184;24.848;2023-07-29T02:31:45;4.32;;;3.05;;
41946;SDS011;27638;42.184;24.848;2023-07-29T02:34:10;4.30;;;3.03;;
41946;SDS011;27638;42.184;24.848;2023-07-29T02:36:36;4.82;;;3.00;;
41946;SDS011;27638;42.184;24.848;2023-07-29T02:39:01;5.32;;;3.42;;
41946;SDS011;27638;42.184;24.848;2023-07-29T02:41:26;3.38;;;3.08;;
41946;SDS011;27638;42.184;24.848;2023-07-29T02:43:52;3.70;;;3.40;;
41946;SDS011;27638;42.184;24.848;2023-07-29T02:46:17;5.13;;;3.00;;
41946;SDS011;27638;42.184;24.848;2023-07-29T02:48:44;4.10;;;2.90;;
41946;SDS011;27638;42.184;24.848;2023-07-29T02:51:09;6.53;;;3.47;;
41946;SDS011;27638;42.184;24.848;2023-07-29T02:53:35;4.63;;;3.08;;
41946;SDS011;27638;42.184;24.848;2023-07-29T02:56:03;6.72;;;3.53;;
41946;SDS011;27638;42.184;24.848;2023-07-29T02:58:30;3.53;;;3.00;;
41946;SDS011;27638;42.184;24.848;2023-07-29T03:01:05;4.38;;;3.28;;
41946;SDS011;27638;42.184;24.848;2023-07-29T03:03:31;4.35;;;3.47;;
41946;SDS011;27638;42.184;24.848;2023-07-29T03:06:02;5.72;;;3.15;;
41946;SDS011;27638;42.184;24.848;2023-07-29T03:08:31;4.25;;;3.08;;
41946;SDS011;27638;42.184;24.848;2023-07-29T03:10:57;4.80;;;3.47;;
41946;SDS011;27638;42.184;24.848;2023-07-29T03:13:24;4.32;;;3.38;;
41946;SDS011;27638;42.184;24.848;2023-07-29T03:15:49;7.05;;;3.88;;
41946;SDS011;27638;42.184;24.848;2023-07-29T03:18:15;4.03;;;3.60;;
41946;SDS011;27638;42.184;24.848;2023-07-29T03:20:41;7.28;;;4.25;;
41946;SDS011;27638;42.184;24.848;2023-07-29T03:23:07;6.78;;;3.60;;
41946;SDS011;27638;42.184;24.848;2023-07-29T03:25:32;5.03;;;3.70;;
41946;SDS011;27638;42.184;24.848;2023-07-29T03:27:58;4.55;;;3.65;;
41946;SDS011;27638;42.184;24.848;2023-07-29T03:30:23;6.50;;;3.63;;
41946;SDS011;27638;42.184;24.848;2023-07-29T03:32:49;5.72;;;3.38;;
41946;SDS011;27638;42.184;24.848;2023-07-29T03:35:15;6.22;;;4.13;;
41946;SDS011;27638;42.184;24.848;2023-07-29T03:37:41;7.85;;;5.03;;
41946;SDS011;27638;42.184;24.848;2023-07-29T03:40:07;8.30;;;4.20;;
41946;SDS011;27638;42.184;24.848;2023-07-29T03:42:34;6.95;;;4.20;;
41946;SDS011;27638;42.184;24.848;2023-07-29T03:45:00;6.60;;;4.10;;
41946;SDS011;27638;42.184;24.848;2023-07-29T03:47:25;5.90;;;4.28;;
41946;SDS011;27638;42.184;24.848;2023-07-29T03:49:51;9.13;;;4.78;;
41946;SDS011;27638;42.184;24.848;2023-07-29T03:52:17;8.35;;;5.10;;
41946;SDS011;27638;42.184;24.848;2023-07-29T03:54:42;10.27;;;4.90;;
41946;SDS011;27638;42.184;24.848;2023-07-29T03:57:07;10.60;;;5.35;;
41946;SDS011;27638;42.184;24.848;2023-07-29T03:59:33;8.93;;;5.03;;
41946;SDS011;27638;42.184;24.848;2023-07-29T04:02:00;6.65;;;4.32;;
41946;SDS011;27638;42.184;24.848;2023-07-29T04:04:25;10.63;;;5.03;;
41946;SDS011;27638;42.184;24.848;2023-07-29T04:06:51;6.28;;;4.22;;
41946;SDS011;27638;42.184;24.848;2023-07-29T04:09:16;6.68;;;4.40;;
41946;SDS011;27638;42.184;24.848;2023-07-29T04:11:42;8.20;;;4.68;;
41946;SDS011;27638;42.184;24.848;2023-07-29T04:14:08;12.32;;;5.00;;
41946;SDS011;27638;42.184;24.848;2023-07-29T04:16:34;10.95;;;5.38;;
41946;SDS011;27638;42.184;24.848;2023-07-29T04:18:59;6.68;;;4.20;;
41946;SDS011;27638;42.184;24.848;2023-07-29T04:21:25;7.13;;;4.95;;
41946;SDS011;27638;42.184;24.848;2023-07-29T04:23:50;15.77;;;4.72;;
41946;SDS011;27638;42.184;24.848;2023-07-29T04:26:16;5.40;;;4.63;;
41946;SDS011;27638;42.184;24.848;2023-07-29T04:28:41;7.65;;;4.93;;
41946;SDS011;27638;42.184;24.848;2023-07-29T04:31:08;13.50;;;7.85;;
41946;SDS011;27638;42.184;24.848;2023-07-29T04:33:33;12.10;;;6.47;;
41946;SDS011;27638;42.184;24.848;2023-07-29T04:35:59;9.90;;;5.05;;
41946;SDS011;27638;42.184;24.848;2023-07-29T04:38:30;8.65;;;5.15;;
41946;SDS011;27638;42.184;24.848;2023-07-29T04:40:57;11.63;;;6.35;;
41946;SDS011;27638;42.184;24.848;2023-07-29T04:43:26;10.05;;;5.00;;
41946;SDS011;27638;42.184;24.848;2023-07-29T04:45:53;7.35;;;5.10;;
41946;SDS011;27638;42.184;24.848;2023-07-29T04:48:19;6.47;;;4.30;;
41946;SDS011;27638;42.184;24.848;2023-07-29T04:50:45;5.70;;;4.78;;
41946;SDS011;27638;42.184;24.848;2023-07-29T04:53:10;6.50;;;5.45;;
41946;SDS011;27638;42.184;24.848;2023-07-29T04:55:36;7.20;;;5.38;;
41946;SDS011;27638;42.184;24.848;2023-07-29T04:58:01;8.02;;;5.60;;
41946;SDS011;27638;42.184;24.848;2023-07-29T05:00:27;10.98;;;5.40;;
41946;SDS011;27638;42.184;24.848;2023-07-29T05:02:52;10.25;;;4.93;;
41946;SDS011;27638;42.184;24.848;2023-07-29T05:05:18;6.70;;;5.75;;
41946;SDS011;27638;42.184;24.848;2023-07-29T05:07:43;6.25;;;5.25;;
41946;SDS011;27638;42.184;24.848;2023-07-29T05:10:09;7.63;;;6.00;;
41946;SDS011;27638;42.184;24.848;2023-07-29T05:12:34;6.28;;;4.80;;
41946;SDS011;27638;42.184;24.848;2023-07-29T05:15:00;11.63;;;7.18;;
41946;SDS011;27638;42.184;24.848;2023-07-29T05:17:25;14.50;;;11.35;;
41946;SDS011;27638;42.184;24.848;2023-07-29T05:19:51;9.77;;;5.93;;
41946;SDS011;27638;42.184;24.848;2023-07-29T05:22:16;6.20;;;4.97;;
41946;SDS011;27638;42.184;24.848;2023-07-29T05:24:42;7.88;;;5.00;;
41946;SDS011;27638;42.184;24.848;2023-07-29T05:27:07;5.20;;;4.50;;
41946;SDS011;27638;42.184;24.848;2023-07-29T05:29:33;9.35;;;7.10;;
41946;SDS011;27638;42.184;24.848;2023-07-29T05:31:59;7.20;;;4.82;;
41946;SDS011;27638;42.184;24.848;2023-07-29T05:34:24;6.13;;;4.72;;
41946;SDS011;27638;42.184;24.848;2023-07-29T05:36:50;8.80;;;5.70;;
41946;SDS011;27638;42.184;24.848;2023-07-29T05:39:15;6.18;;;4.22;;
41946;SDS011;27638;42.184;24.848;2023-07-29T05:41:41;7.18;;;4.07;;
41946;SDS011;27638;42.184;24.848;2023-07-29T05:44:07;11.05;;;6.82;;
41946;SDS011;27638;42.184;24.848;2023-07-29T05:46:32;11.85;;;7.60;;
41946;SDS011;27638;42.184;24.848;2023-07-29T05:48:58;14.40;;;7.25;;
41946;SDS011;27638;42.184;24.848;2023-07-29T05:51:23;6.78;;;5.75;;
41946;SDS011;27638;42.184;24.848;2023-07-29T05:53:49;12.38;;;6.25;;
41946;SDS011;27638;42.184;24.848;2023-07-29T05:56:14;8.43;;;5.20;;
41946;SDS011;27638;42.184;24.848;2023-07-29T05:58:40;9.20;;;4.35;;
41946;SDS011;27638;42.184;24.848;2023-07-29T06:01:05;5.05;;;4.57;;
41946;SDS011;27638;42.184;24.848;2023-07-29T06:03:31;7.00;;;4.97;;
41946;SDS011;27638;42.184;24.848;2023-07-29T06:05:56;7.13;;;4.25;;
41946;SDS011;27638;42.184;24.848;2023-07-29T06:08:22;6.45;;;4.85;;
41946;SDS011;27638;42.184;24.848;2023-07-29T06:10:48;5.45;;;4.30;;
41946;SDS011;27638;42.184;24.848;2023-07-29T06:13:13;6.90;;;4.60;;
41946;SDS011;27638;42.184;24.848;2023-07-29T06:15:39;7.35;;;4.32;;
41946;SDS011;27638;42.184;24.848;2023-07-29T06:18:04;7.18;;;4.95;;
41946;SDS011;27638;42.184;24.848;2023-07-29T06:20:30;7.03;;;4.43;;
41946;SDS011;27638;42.184;24.848;2023-07-29T06:22:55;4.80;;;4.00;;
41946;SDS011;27638;42.184;24.848;2023-07-29T06:25:21;6.57;;;4.07;;
41946;SDS011;27638;42.184;24.848;2023-07-29T06:27:47;5.95;;;5.15;;
41946;SDS011;27638;42.184;24.848;2023-07-29T06:30:13;5.20;;;4.07;;
41946;SDS011;27638;42.184;24.848;2023-07-29T06:32:38;4.28;;;3.85;;
41946;SDS011;27638;42.184;24.848;2023-07-29T06:35:04;6.22;;;3.47;;
41946;SDS011;27638;42.184;24.848;2023-07-29T06:37:30;6.57;;;4.43;;
41946;SDS011;27638;42.184;24.848;2023-07-29T06:39:55;6.35;;;4.05;;
41946;SDS011;27638;42.184;24.848;2023-07-29T06:42:21;8.35;;;6.32;;
41946;SDS011;27638;42.184;24.848;2023-07-29T06:44:47;6.80;;;4.57;;
41946;SDS011;27638;42.184;24.848;2023-07-29T06:47:12;3.58;;;3.28;;
41946;SDS011;27638;42.184;24.848;2023-07-29T06:49:38;7.65;;;3.65;;
41946;SDS011;27638;42.184;24.848;2023-07-29T06:52:03;6.88;;;4.20;;
41946;SDS011;27638;42.184;24.848;2023-07-29T06:54:29;8.57;;;4.55;;
41946;SDS011;27638;42.184;24.848;2023-07-29T06:56:55;5.55;;;4.05;;
41946;SDS011;27638;42.184;24.848;2023-07-29T06:59:20;5.32;;;3.85;;
41946;SDS011;27638;42.184;24.848;2023-07-29T07:01:46;11.18;;;10.20;;
41946;SDS011;27638;42.184;24.848;2023-07-29T07:04:11;6.05;;;5.43;;
41946;SDS011;27638;42.184;24.848;2023-07-29T07:06:37;5.03;;;4.47;;
41946;SDS011;27638;42.184;24.848;2023-07-29T07:09:02;5.78;;;3.70;;
41946;SDS011;27638;42.184;24.848;2023-07-29T07:11:28;5.07;;;4.20;;
41946;SDS011;27638;42.184;24.848;2023-07-29T07:13:54;4.45;;;3.80;;
41946;SDS011;27638;42.184;24.848;2023-07-29T07:16:19;4.75;;;3.55;;
41946;SDS011;27638;42.184;24.848;2023-07-29T07:18:45;4.07;;;3.40;;
41946;SDS011;27638;42.184;24.848;2023-07-29T07:21:10;7.40;;;4.20;;
41946;SDS011;27638;42.184;24.848;2023-07-29T07:23:36;4.43;;;3.95;;
41946;SDS011;27638;42.184;24.848;2023-07-29T07:26:01;4.35;;;3.10;;
41946;SDS011;27638;42.184;24.848;2023-07-29T07:28:27;4.32;;;3.33;;
41946;SDS011;27638;42.184;24.848;2023-07-29T07:30:53;4.22;;;3.42;;
41946;SDS011;27638;42.184;24.848;2023-07-29T07:33:20;4.05;;;3.63;;
41946;SDS011;27638;42.184;24.848;2023-07-29T07:35:46;3.72;;;3.25;;
41946;SDS011;27638;42.184;24.848;2023-07-29T07:38:12;6.68;;;3.50;;
41946;SDS011;27638;42.184;24.848;2023-07-29T07:40:37;4.78;;;3.38;;
41946;SDS011;27638;42.184;24.848;2023-07-29T07:43:03;4.43;;;3.83;;
41946;SDS011;27638;42.184;24.848;2023-07-29T07:45:28;4.50;;;3.35;;
41946;SDS011;27638;42.184;24.848;2023-07-29T07:47:54;4.55;;;3.42;;
41946;SDS011;27638;42.184;24.848;2023-07-29T08:04:45;5.68;;;3.63;;
41946;SDS011;27638;42.184;24.848;2023-07-29T08:07:11;5.18;;;3.38;;
41946;SDS011;27638;42.184;24.848;2023-07-29T08:09:36;7.28;;;4.05;;
41946;SDS011;27638;42.184;24.848;2023-07-29T08:12:02;3.97;;;3.60;;
41946;SDS011;27638;42.184;24.848;2023-07-29T08:14:28;4.47;;;3.63;;
41946;SDS011;27638;42.184;24.848;2023-07-29T08:16:53;5.03;;;3.60;;
41946;SDS011;27638;42.184;24.848;2023-07-29T08:19:19;3.80;;;3.38;;
41946;SDS011;27638;42.184;24.848;2023-07-29T08:21:44;5.15;;;3.33;;
41946;SDS011;27638;42.184;24.848;2023-07-29T08:24:10;5.28;;;4.53;;
41946;SDS011;27638;42.184;24.848;2023-07-29T08:26:35;5.88;;;3.75;;
41946;SDS011;27638;42.184;24.848;2023-07-29T08:29:01;4.32;;;3.50;;
41946;SDS011;27638;42.184;24.848;2023-07-29T08:31:26;4.90;;;3.67;;
41946;SDS011;27638;42.184;24.848;2023-07-29T08:33:52;5.60;;;3.60;;
41946;SDS011;27638;42.184;24.848;2023-07-29T08:36:17;4.82;;;3.55;;
41946;SDS011;27638;42.184;24.848;2023-07-29T08:38:43;4.30;;;3.28;;
41946;SDS011;27638;42.184;24.848;2023-07-29T08:44:26;5.00;;;3.67;;
41946;SDS011;27638;42.184;24.848;2023-07-29T08:46:55;4.13;;;3.50;;
41946;SDS011;27638;42.184;24.848;2023-07-29T08:49:22;4.85;;;3.60;;
41946;SDS011;27638;42.184;24.848;2023-07-29T08:51:49;3.80;;;3.45;;
41946;SDS011;27638;42.184;24.848;2023-07-29T08:54:18;4.15;;;3.33;;
41946;SDS011;27638;42.184;24.848;2023-07-29T08:56:44;4.00;;;3.40;;
41946;SDS011;27638;42.184;24.848;2023-07-29T08:59:10;5.80;;;3.55;;
41946;SDS011;27638;42.184;24.848;2023-07-29T09:01:41;6.38;;;3.95;;
41946;SDS011;27638;42.184;24.848;2023-07-29T09:04:07;4.40;;;3.63;;
41946;SDS011;27638;42.184;24.848;2023-07-29T09:06:32;4.07;;;3.75;;
41946;SDS011;27638;42.184;24.848;2023-07-29T09:08:59;4.25;;;3.80;;
41946;SDS011;27638;42.184;24.848;2023-07-29T09:11:27;3.70;;;3.40;;
41946;SDS011;27638;42.184;24.848;2023-07-29T09:13:53;3.85;;;3.47;;
41946;SDS011;27638;42.184;24.848;2023-07-29T09:16:22;4.93;;;4.38;;
41946;SDS011;27638;42.184;24.848;2023-07-29T09:18:48;4.95;;;3.65;;
41946;SDS011;27638;42.184;24.848;2023-07-29T09:21:16;5.18;;;3.70;;
41946;SDS011;27638;42.184;24.848;2023-07-29T09:23:43;5.53;;;3.55;;
41946;SDS011;27638;42.184;24.848;2023-07-29T09:26:09;5.00;;;3.47;;
41946;SDS011;27638;42.184;24.848;2023-07-29T09:28:39;4.25;;;3.72;;
41946;SDS011;27638;42.184;24.848;2023-07-29T09:31:06;4.78;;;3.53;;
41946;SDS011;27638;42.184;24.848;2023-07-29T09:33:35;4.88;;;3.85;;
41946;SDS011;27638;42.184;24.848;2023-07-29T09:36:02;4.95;;;3.60;;
41946;SDS011;27638;42.184;24.848;2023-07-29T09:38:34;7.32;;;3.78;;
41946;SDS011;27638;42.184;24.848;2023-07-29T09:41:01;3.45;;;3.15;;
41946;SDS011;27638;42.184;24.848;2023-07-29T09:43:30;6.03;;;3.80;;
41946;SDS011;27638;42.184;24.848;2023-07-29T09:46:00;4.00;;;3.60;;
41946;SDS011;27638;42.184;24.848;2023-07-29T09:48:26;3.63;;;3.17;;
41946;SDS011;27638;42.184;24.848;2023-07-29T09:50:54;5.80;;;3.03;;
41946;SDS011;27638;42.184;24.848;2023-07-29T09:53:20;3.72;;;3.10;;
41946;SDS011;27638;42.184;24.848;2023-07-29T09:55:46;4.07;;;3.00;;
41946;SDS011;27638;42.184;24.848;2023-07-29T09:58:15;3.45;;;3.00;;
41946;SDS011;27638;42.184;24.848;2023-07-29T10:00:50;5.07;;;3.00;;
41946;SDS011;27638;42.184;24.848;2023-07-29T10:03:16;3.17;;;2.88;;
41946;SDS011;27638;42.184;24.848;2023-07-29T10:05:43;4.10;;;3.42;;
41946;SDS011;27638;42.184;24.848;2023-07-29T10:08:10;4.82;;;3.00;;
41946;SDS011;27638;42.184;24.848;2023-07-29T10:10:37;3.17;;;2.65;;
41946;SDS011;27638;42.184;24.848;2023-07-29T10:13:02;3.60;;;2.60;;
41946;SDS011;27638;42.184;24.848;2023-07-29T10:15:28;3.70;;;2.22;;
41946;SDS011;27638;42.184;24.848;2023-07-29T10:17:55;2.65;;;2.45;;
41946;SDS011;27638;42.184;24.848;2023-07-29T10:20:21;2.38;;;2.17;;
41946;SDS011;27638;42.184;24.848;2023-07-29T10:22:47;2.45;;;2.25;;
41946;SDS011;27638;42.184;24.848;2023-07-29T10:25:15;2.58;;;2.35;;
41946;SDS011;27638;42.184;24.848;2023-07-29T10:27:49;3.30;;;3.00;;
41946;SDS011;27638;42.184;24.848;2023-07-29T10:30:18;2.40;;;2.20;;
41946;SDS011;27638;42.184;24.848;2023-07-29T10:32:44;4.13;;;3.00;;
41946;SDS011;27638;42.184;24.848;2023-07-29T10:35:13;6.95;;;4.93;;
41946;SDS011;27638;42.184;24.848;2023-07-29T10:37:39;3.75;;;3.45;;
41946;SDS011;27638;42.184;24.848;2023-07-29T10:40:07;2.78;;;2.58;;
41946;SDS011;27638;42.184;24.848;2023-07-29T10:42:36;2.58;;;2.38;;
41946;SDS011;27638;42.184;24.848;2023-07-29T10:45:18;3.50;;;2.80;;
41946;SDS011;27638;42.184;24.848;2023-07-29T10:47:45;2.92;;;2.60;;
41946;SDS011;27638;42.184;24.848;2023-07-29T10:50:18;3.20;;;2.90;;
41946;SDS011;27638;42.184;24.848;2023-07-29T10:52:48;4.18;;;3.42;;
41946;SDS011;27638;42.184;24.848;2023-07-29T10:55:25;2.38;;;2.17;;
41946;SDS011;27638;42.184;24.848;2023-07-29T11:00:38;3.20;;;2.60;;
41946;SDS011;27638;42.184;24.848;2023-07-29T11:03:06;2.70;;;2.50;;
41946;SDS011;27638;42.184;24.848;2023-07-29T11:05:43;2.53;;;2.33;;
41946;SDS011;27638;42.184;24.848;2023-07-29T11:11:01;2.45;;;2.25;;
41946;SDS011;27638;42.184;24.848;2023-07-29T11:13:34;2.88;;;2.55;;
41946;SDS011;27638;42.184;24.848;2023-07-29T11:16:01;4.07;;;2.83;;
41946;SDS011;27638;42.184;24.848;2023-07-29T11:18:28;2.25;;;2.05;;
41946;SDS011;27638;42.184;24.848;2023-07-29T11:20:56;1.85;;;1.73;;
41946;SDS011;27638;42.184;24.848;2023-07-29T11:23:32;2.00;;;1.80;;
41946;SDS011;27638;42.184;24.848;2023-07-29T11:25:59;3.47;;;2.15;;
41946;SDS011;27638;42.184;24.848;2023-07-29T11:28:26;2.47;;;1.95;;
41946;SDS011;27638;42.184;24.848;2023-07-29T11:30:53;3.75;;;1.88;;
41946;SDS011;27638;42.184;24.848;2023-07-29T11:33:20;2.00;;;1.90;;
41946;SDS011;27638;42.184;24.848;2023-07-29T11:35:47;1.88;;;1.77;;
41946;SDS011;27638;42.184;24.848;2023-07-29T11:38:16;2.50;;;1.67;;
41946;SDS011;27638;42.184;24.848;2023-07-29T11:40:43;2.67;;;1.88;;
41946;SDS011;27638;42.184;24.848;2023-07-29T11:43:18;2.53;;;1.52;;
41946;SDS011;27638;42.184;24.848;2023-07-29T11:45:44;1.80;;;1.70;;
41946;SDS011;27638;42.184;24.848;2023-07-29T11:48:10;2.10;;;2.00;;
41946;SDS011;27638;42.184;24.848;2023-07-29T11:50:35;1.80;;;1.70;;
41946;SDS011;27638;42.184;24.848;2023-07-29T11:53:01;2.70;;;1.88;;
41946;SDS011;27638;42.184;24.848;2023-07-29T11:55:27;2.03;;;1.83;;
41946;SDS011;27638;42.184;24.848;2023-07-29T11:57:52;2.35;;;1.92;;
41946;SDS011;27638;42.184;24.848;2023-07-29T12:00:18;1.65;;;1.55;;
41946;SDS011;27638;42.184;24.848;2023-07-29T12:02:45;1.58;;;1.40;;
41946;SDS011;27638;42.184;24.848;2023-07-29T12:05:14;1.60;;;1.50;;
41946;SDS011;27638;42.184;24.848;2023-07-29T12:07:41;1.95;;;1.40;;
41946;SDS011;27638;42.184;24.848;2023-07-29T12:10:08;1.40;;;1.30;;
41946;SDS011;27638;42.184;24.848;2023-07-29T12:12:53;1.08;;;0.98;;
41946;SDS011;27638;42.184;24.848;2023-07-29T12:15:25;0.82;;;0.75;;
41946;SDS011;27638;42.184;24.848;2023-07-29T12:17:53;0.77;;;0.70;;
41946;SDS011;27638;42.184;24.848;2023-07-29T12:20:21;1.20;;;0.88;;
41946;SDS011;27638;42.184;24.848;2023-07-29T12:22:51;1.20;;;1.10;;
41946;SDS011;27638;42.184;24.848;2023-07-29T12:25:19;2.10;;;1.10;;
41946;SDS011;27638;42.184;24.848;2023-07-29T12:27:46;1.13;;;0.88;;
41946;SDS011;27638;42.184;24.848;2023-07-29T12:30:12;1.65;;;1.00;;
41946;SDS011;27638;42.184;24.848;2023-07-29T12:32:44;0.85;;;0.85;;
41946;SDS011;27638;42.184;24.848;2023-07-29T12:35:11;1.10;;;1.00;;
41946;SDS011;27638;42.184;24.848;2023-07-29T12:37:36;1.10;;;0.95;;
41946;SDS011;27638;42.184;24.848;2023-07-29T12:40:04;1.15;;;1.05;;
41946;SDS011;27638;42.184;24.848;2023-07-29T12:42:30;1.08;;;0.98;;
41946;SDS011;27638;42.184;24.848;2023-07-29T12:44:55;0.98;;;0.90;;
41946;SDS011;27638;42.184;24.848;2023-07-29T12:47:21;0.93;;;0.85;;
41946;SDS011;27638;42.184;24.848;2023-07-29T12:49:46;1.77;;;1.13;;
41946;SDS011;27638;42.184;24.848;2023-07-29T12:52:12;0.90;;;0.90;;
41946;SDS011;27638;42.184;24.848;2023-07-29T12:54:37;1.15;;;1.00;;
41946;SDS011;27638;42.184;24.848;2023-07-29T12:57:05;1.85;;;0.90;;
41946;SDS011;27638;42.184;24.848;2023-07-29T12:59:31;0.93;;;0.80;;
41946;SDS011;27638;42.184;24.848;2023-07-29T13:01:57;1.20;;;0.90;;
41946;SDS011;27638;42.184;24.848;2023-07-29T13:04:22;0.93;;;0.93;;
41946;SDS011;27638;42.184;24.848;2023-07-29T13:06:48;1.33;;;0.90;;
41946;SDS011;27638;42.184;24.848;2023-07-29T13:09:13;0.88;;;0.88;;
41946;SDS011;27638;42.184;24.848;2023-07-29T13:11:39;0.80;;;0.75;;
41946;SDS011;27638;42.184;24.848;2023-07-29T13:14:04;1.08;;;0.85;;
41946;SDS011;27638;42.184;24.848;2023-07-29T13:16:30;1.23;;;1.05;;
41946;SDS011;27638;42.184;24.848;2023-07-29T13:18:55;1.13;;;0.60;;
41946;SDS011;27638;42.184;24.848;2023-07-29T13:21:21;0.77;;;0.60;;
41946;SDS011;27638;42.184;24.848;2023-07-29T13:23:47;0.80;;;0.80;;
41946;SDS011;27638;42.184;24.848;2023-07-29T13:26:13;0.70;;;0.70;;
41946;SDS011;27638;42.184;24.848;2023-07-29T13:28:38;1.92;;;0.60;;
41946;SDS011;27638;42.184;24.848;2023-07-29T13:31:04;0.65;;;0.65;;
41946;SDS011;27638;42.184;24.848;2023-07-29T13:33:29;0.82;;;0.80;;
41946;SDS011;27638;42.184;24.848;2023-07-29T13:35:59;0.85;;;0.85;;
41946;SDS011;27638;42.184;24.848;2023-07-29T13:38:25;1.13;;;0.60;;
41946;SDS011;27638;42.184;24.848;2023-07-29T13:40:50;0.45;;;0.45;;
41946;SDS011;27638;42.184;24.848;2023-07-29T13:43:16;0.82;;;0.70;;
41946;SDS011;27638;42.184;24.848;2023-07-29T13:45:41;1.15;;;0.60;;
41946;SDS011;27638;42.184;24.848;2023-07-29T13:48:07;1.52;;;1.00;;
41946;SDS011;27638;42.184;24.848;2023-07-29T13:50:32;0.80;;;0.68;;
41946;SDS011;27638;42.184;24.848;2023-07-29T13:52:58;0.90;;;0.80;;
41946;SDS011;27638;42.184;24.848;2023-07-29T13:55:24;0.73;;;0.73;;
41946;SDS011;27638;42.184;24.848;2023-07-29T13:57:49;1.20;;;0.80;;
41946;SDS011;27638;42.184;24.848;2023-07-29T14:00:15;0.88;;;0.88;;
41946;SDS011;27638;42.184;24.848;2023-07-29T14:02:41;0.80;;;0.80;;
41946;SDS011;27638;42.184;24.848;2023-07-29T14:05:07;0.70;;;0.70;;
41946;SDS011;27638;42.184;24.848;2023-07-29T14:07:33;1.10;;;1.00;;
41946;SDS011;27638;42.184;24.848;2023-07-29T14:09:58;1.60;;;1.00;;
41946;SDS011;27638;42.184;24.848;2023-07-29T14:12:24;1.02;;;0.93;;
41946;SDS011;27638;42.184;24.848;2023-07-29T14:14:49;0.90;;;0.90;;
41946;SDS011;27638;42.184;24.848;2023-07-29T14:17:15;1.05;;;0.90;;
41946;SDS011;27638;42.184;24.848;2023-07-29T14:19:40;1.08;;;0.90;;
41946;SDS011;27638;42.184;24.848;2023-07-29T14:22:06;0.85;;;0.85;;
41946;SDS011;27638;42.184;24.848;2023-07-29T14:24:32;0.77;;;0.77;;
41946;SDS011;27638;42.184;24.848;2023-07-29T14:26:57;1.30;;;0.88;;
41946;SDS011;27638;42.184;24.848;2023-07-29T14:29:23;0.90;;;0.80;;
41946;SDS011;27638;42.184;24.848;2023-07-29T14:31:48;1.00;;;0.90;;
41946;SDS011;27638;42.184;24.848;2023-07-29T14:34:14;0.73;;;0.73;;
41946;SDS011;27638;42.184;24.848;2023-07-29T14:36:39;1.25;;;0.90;;
41946;SDS011;27638;42.184;24.848;2023-07-29T14:39:05;1.83;;;1.15;;
41946;SDS011;27638;42.184;24.848;2023-07-29T14:41:30;1.35;;;0.90;;
41946;SDS011;27638;42.184;24.848;2023-07-29T14:43:56;1.00;;;1.00;;
41946;SDS011;27638;42.184;24.848;2023-07-29T14:46:22;1.27;;;1.15;;
41946;SDS011;27638;42.184;24.848;2023-07-29T14:48:47;2.05;;;1.08;;
41946;SDS011;27638;42.184;24.848;2023-07-29T14:51:13;1.10;;;1.00;;
41946;SDS011;27638;42.184;24.848;2023-07-29T14:53:39;2.13;;;0.98;;
41946;SDS011;27638;42.184;24.848;2023-07-29T14:56:04;1.15;;;0.95;;
41946;SDS011;27638;42.184;24.848;2023-07-29T14:58:30;1.17;;;1.00;;
41946;SDS011;27638;42.184;24.848;2023-07-29T15:00:56;2.67;;;1.10;;
41946;SDS011;27638;42.184;24.848;2023-07-29T15:03:22;1.10;;;1.00;;